createdAt,value
2019-02-20T00:01:03.453Z,25.53
2019-02-20T00:03:32.710Z,28.63
2019-02-20T00:06:02.183Z,25.67
2019-02-20T00:08:31.370Z,24.47
2019-02-20T00:11:00.638Z,25.60
2019-02-20T00:13:30.003Z,25.83
2019-02-20T00:15:59.104Z,26.87
2019-02-20T00:18:28.232Z,24.33
2019-02-20T00:20:57.356Z,24.63
2019-02-20T00:23:26.792Z,24.80
2019-02-20T00:25:55.882Z,24.07
2019-02-20T00:28:25.144Z,23.37
2019-02-20T00:30:54.300Z,22.70
2019-02-20T00:33:23.494Z,24.90
2019-02-20T00:35:52.976Z,25.30
2019-02-20T00:38:22.253Z,23.83
2019-02-20T00:40:51.380Z,24.90
2019-02-20T00:43:20.517Z,23.43
2019-02-20T00:46:26.761Z,24.90
2019-02-20T00:49:06.966Z,25.43
2019-02-20T00:51:44.280Z,25.57
2019-02-20T00:54:13.689Z,27.17
2019-02-20T00:56:42.853Z,26.53
2019-02-20T00:59:12.277Z,23.73
2019-02-20T01:01:41.441Z,25.40
2019-02-20T01:04:10.724Z,25.10
2019-02-20T01:06:40.020Z,24.40
2019-02-20T01:09:09.321Z,24.20
2019-02-20T01:11:38.564Z,24.40
2019-02-20T01:14:07.711Z,27.37
2019-02-20T01:16:37.005Z,25.50
2019-02-20T01:19:06.275Z,22.37
2019-02-20T01:21:35.372Z,25.87
2019-02-20T01:24:04.662Z,24.60
2019-02-20T01:26:33.835Z,25.50
2019-02-20T01:29:02.929Z,23.80
2019-02-20T01:31:32.023Z,25.37
2019-02-20T01:34:01.270Z,26.40
2019-02-20T01:36:30.555Z,26.27
2019-02-20T01:39:00.127Z,24.67
2019-02-20T01:41:29.219Z,24.57
2019-02-20T01:43:58.293Z,23.60
2019-02-20T01:46:27.418Z,22.40
2019-02-20T01:48:58.569Z,22.87
2019-02-20T01:51:27.852Z,23.37
2019-02-20T01:53:57.434Z,24.77
2019-02-20T01:56:26.550Z,24.17
2019-02-20T01:58:55.646Z,23.57
2019-02-20T02:01:24.919Z,26.90
2019-02-20T02:03:54.175Z,23.67
2019-02-20T02:06:23.293Z,21.77
2019-02-20T02:08:52.549Z,22.47
2019-02-20T02:11:21.609Z,24.77
2019-02-20T02:13:51.025Z,24.23
2019-02-20T02:16:20.393Z,24.60
2019-02-20T02:18:49.546Z,24.50
2019-02-20T02:21:18.664Z,24.17
2019-02-20T02:23:48.046Z,21.83
2019-02-20T02:26:17.343Z,21.47
2019-02-20T02:28:46.488Z,22.90
2019-02-20T02:31:15.542Z,27.20
2019-02-20T02:33:44.614Z,24.63
2019-02-20T02:36:13.739Z,23.30
2019-02-20T02:38:43.105Z,22.70
2019-02-20T02:41:12.209Z,23.80
2019-02-20T02:43:41.351Z,22.70
2019-02-20T02:46:10.688Z,23.60
2019-02-20T02:48:39.923Z,22.50
2019-02-20T02:51:09.351Z,22.60
2019-02-20T02:53:38.561Z,22.93
2019-02-20T02:56:07.639Z,22.93
2019-02-20T02:58:36.738Z,21.10
2019-02-20T03:01:05.997Z,21.97
2019-02-20T03:03:35.219Z,22.73
2019-02-20T03:06:04.652Z,22.90
2019-02-20T03:08:33.719Z,22.60
2019-02-20T03:11:03.006Z,23.40
2019-02-20T03:13:32.231Z,23.13
2019-02-20T03:16:01.362Z,22.47
2019-02-20T03:18:30.709Z,23.40
2019-02-20T03:20:59.857Z,20.93
2019-02-20T03:23:29.075Z,23.00
2019-02-20T03:25:58.183Z,21.53
2019-02-20T03:28:27.385Z,20.50
2019-02-20T03:30:56.760Z,21.50
2019-02-20T03:33:25.869Z,21.07
2019-02-20T03:35:55.166Z,21.37
2019-02-20T03:38:30.361Z,19.43
2019-02-20T03:40:55.552Z,22.57
2019-02-20T03:43:24.842Z,21.67
2019-02-20T03:45:53.941Z,21.07
2019-02-20T03:48:23.273Z,21.10
2019-02-20T03:50:52.372Z,21.50
2019-02-20T03:53:21.622Z,18.97
2019-02-20T03:55:51.047Z,20.77
2019-02-20T03:58:20.200Z,20.33
2019-02-20T04:00:49.470Z,20.60
2019-02-20T04:03:18.626Z,19.27
2019-02-20T04:05:47.738Z,19.93
2019-02-20T04:08:17.041Z,17.20
2019-02-20T04:10:46.196Z,19.83
2019-02-20T04:13:15.612Z,19.87
2019-02-20T04:15:44.689Z,19.50
2019-02-20T04:18:13.960Z,17.17
2019-02-20T04:20:43.148Z,18.93
2019-02-20T04:23:12.240Z,18.63
2019-02-20T04:25:41.649Z,18.37
2019-02-20T04:28:17.818Z,19.33
2019-02-20T04:30:47.021Z,19.60
2019-02-20T04:33:16.258Z,18.10
2019-02-20T04:35:45.349Z,18.43
2019-02-20T04:38:14.894Z,18.63
2019-02-20T04:40:44.010Z,17.60
2019-02-20T04:43:13.224Z,17.77
2019-02-20T04:45:42.291Z,16.23
2019-02-20T04:48:11.359Z,17.23
2019-02-20T04:50:40.510Z,16.30
2019-02-20T04:53:09.712Z,18.57
2019-02-20T04:55:38.947Z,18.10
2019-02-20T04:58:19.188Z,19.03
2019-02-20T05:00:48.300Z,17.80
2019-02-20T05:03:17.397Z,16.83
2019-02-20T05:05:46.880Z,17.23
2019-02-20T05:08:16.262Z,16.57
2019-02-20T05:10:45.510Z,19.60
2019-02-20T05:13:14.631Z,16.90
2019-02-20T05:15:43.967Z,15.90
2019-02-20T05:18:13.056Z,17.27
2019-02-20T05:20:42.318Z,16.17
2019-02-20T05:23:11.394Z,15.97
2019-02-20T05:25:40.607Z,17.47
2019-02-20T05:28:09.740Z,15.80
2019-02-20T05:30:38.827Z,17.40
2019-02-20T05:33:08.104Z,17.20
2019-02-20T05:35:37.259Z,18.20
2019-02-20T05:38:06.492Z,16.90
2019-02-20T05:40:35.742Z,16.63
2019-02-20T05:43:05.047Z,18.23
2019-02-20T05:45:34.304Z,18.90
2019-02-20T05:48:03.357Z,17.93
2019-02-20T05:50:32.530Z,20.27
2019-02-20T05:53:01.874Z,20.00
2019-02-20T05:55:30.941Z,19.67
2019-02-20T05:58:00.211Z,19.77
2019-02-20T06:00:29.641Z,18.77
2019-02-20T06:02:58.776Z,20.63
2019-02-20T06:05:28.062Z,20.03
2019-02-20T06:07:57.140Z,20.33
2019-02-20T06:10:26.391Z,20.70
2019-02-20T06:12:55.601Z,19.30
2019-02-20T06:15:25.178Z,18.90
2019-02-20T06:17:54.225Z,20.20
2019-02-20T06:20:23.346Z,19.97
2019-02-20T06:22:52.646Z,18.70
2019-02-20T06:25:21.742Z,21.20
2019-02-20T06:27:50.834Z,19.53
2019-02-20T06:30:20.133Z,21.40
2019-02-20T06:32:49.388Z,18.70
2019-02-20T06:35:18.606Z,20.87
2019-02-20T06:37:47.810Z,20.23
2019-02-20T06:40:16.944Z,23.17
2019-02-20T06:42:46.302Z,20.30
2019-02-20T06:45:15.764Z,20.87
2019-02-20T06:47:44.943Z,18.60
2019-02-20T06:50:14.226Z,21.37
2019-02-20T06:52:45.178Z,23.90
2019-02-20T06:55:14.311Z,22.30
2019-02-20T06:57:43.648Z,24.40
2019-02-20T07:00:13.103Z,24.60
2019-02-20T07:02:42.883Z,23.83
2019-02-20T07:05:51.777Z,21.83
2019-02-20T07:08:58.369Z,20.10
2019-02-20T07:11:44.409Z,21.20
2019-02-20T07:14:45.826Z,19.63
2019-02-20T07:17:38.774Z,18.93
2019-02-20T07:20:42.550Z,19.73
2019-02-20T07:23:40.272Z,17.97
2019-02-20T07:26:41.480Z,17.57
2019-02-20T07:29:43.506Z,17.00
2019-02-20T07:32:15.565Z,16.20
2019-02-20T07:34:44.630Z,16.93
2019-02-20T07:37:13.720Z,17.13
2019-02-20T07:39:43.045Z,17.33
2019-02-20T07:42:12.313Z,17.60
2019-02-20T07:44:41.429Z,16.87
2019-02-20T07:47:10.527Z,17.23
2019-02-20T07:49:39.721Z,17.83
2019-02-20T07:52:08.825Z,17.20
2019-02-20T07:54:38.106Z,18.00
2019-02-20T07:57:07.215Z,17.30
2019-02-20T07:59:36.541Z,17.10
2019-02-20T08:02:05.740Z,16.57
2019-02-20T08:04:35.005Z,17.17
2019-02-20T08:07:04.208Z,18.20
2019-02-20T08:09:33.372Z,17.13
2019-02-20T08:12:02.692Z,17.63
2019-02-20T08:14:31.945Z,15.93
2019-02-20T08:17:01.253Z,17.93
2019-02-20T08:19:30.345Z,17.30
2019-02-20T08:21:59.531Z,18.00
2019-02-20T08:24:28.616Z,18.60
2019-02-20T08:26:57.933Z,17.70
2019-02-20T08:29:27.364Z,17.27
2019-02-20T08:31:56.442Z,17.73
2019-02-20T08:34:25.591Z,19.17
2019-02-20T08:36:56.594Z,18.20
2019-02-20T08:39:25.982Z,17.73
2019-02-20T08:41:55.503Z,17.20
2019-02-20T08:44:24.583Z,17.13
2019-02-20T08:46:53.789Z,17.57
2019-02-20T08:49:22.868Z,17.97
2019-02-20T08:51:52.234Z,16.47
2019-02-20T08:54:21.388Z,16.87
2019-02-20T08:56:50.535Z,17.40
2019-02-20T08:59:19.947Z,17.20
2019-02-20T09:01:49.077Z,16.40
2019-02-20T09:04:18.172Z,17.53
2019-02-20T09:06:47.631Z,16.63
2019-02-20T09:09:16.923Z,15.90
2019-02-20T09:11:46.143Z,16.03
2019-02-20T09:14:15.341Z,16.37
2019-02-20T09:16:44.561Z,17.03
2019-02-20T09:19:13.637Z,16.00
2019-02-20T09:21:42.776Z,15.70
2019-02-20T09:24:11.927Z,16.77
2019-02-20T09:26:41.244Z,16.47
2019-02-20T09:29:10.463Z,18.90
2019-02-20T09:31:39.659Z,18.33
2019-02-20T09:34:09.018Z,16.47
2019-02-20T09:36:38.316Z,18.13
2019-02-20T09:39:45.197Z,17.60
2019-02-20T09:42:20.085Z,16.53
2019-02-20T09:44:50.055Z,17.13
2019-02-20T09:47:20.317Z,15.90
2019-02-20T09:49:49.412Z,16.47
2019-02-20T09:52:18.562Z,17.10
2019-02-20T09:54:47.674Z,16.07
2019-02-20T09:57:16.778Z,19.10
2019-02-20T09:59:46.067Z,17.97
2019-02-20T10:02:15.168Z,17.63
2019-02-20T10:04:47.173Z,17.53
2019-02-20T10:07:16.580Z,17.83
2019-02-20T10:09:45.754Z,19.30
2019-02-20T10:12:15.268Z,18.67
2019-02-20T10:14:44.371Z,19.40
2019-02-20T10:17:13.543Z,17.90
2019-02-20T10:19:42.824Z,17.87
2019-02-20T10:22:12.135Z,19.80
2019-02-20T10:24:41.237Z,19.37
2019-02-20T10:27:10.327Z,18.57
2019-02-20T10:29:39.503Z,20.67
2019-02-20T10:32:08.961Z,19.27
2019-02-20T10:34:38.118Z,19.40
2019-02-20T10:37:07.214Z,19.40
2019-02-20T10:39:36.478Z,19.87
2019-02-20T10:42:05.690Z,19.20
2019-02-20T10:44:35.027Z,18.77
2019-02-20T10:47:04.298Z,18.50
2019-02-20T10:49:33.551Z,18.27
2019-02-20T10:52:02.649Z,19.97
2019-02-20T10:54:34.665Z,19.00
2019-02-20T10:57:03.893Z,19.17
2019-02-20T10:59:33.215Z,18.00
2019-02-20T11:02:02.355Z,19.47
2019-02-20T11:04:31.660Z,19.87
2019-02-20T11:07:00.794Z,19.70
2019-02-20T11:09:31.811Z,19.20
2019-02-20T11:12:01.267Z,19.87
2019-02-20T11:14:30.576Z,19.63
2019-02-20T11:16:59.683Z,18.33
2019-02-20T11:19:29.072Z,20.87
2019-02-20T11:21:58.222Z,18.70
2019-02-20T11:24:27.413Z,19.40
2019-02-20T11:26:56.526Z,19.37
2019-02-20T11:29:25.975Z,19.27
2019-02-20T11:31:56.511Z,17.97
2019-02-20T11:34:28.084Z,19.73
2019-02-20T11:36:57.380Z,19.43
2019-02-20T11:39:37.303Z,19.13
2019-02-20T11:41:59.633Z,20.90
2019-02-20T11:44:28.931Z,17.10
2019-02-20T11:46:58.169Z,18.20
2019-02-20T11:49:27.401Z,19.07
2019-02-20T11:51:56.496Z,18.77
2019-02-20T11:54:27.935Z,18.50
2019-02-20T11:56:57.054Z,18.17
2019-02-20T15:41:45.410Z,8.73
2019-02-20T15:44:14.675Z,8.53
2019-02-20T15:46:44.043Z,8.50
2019-02-20T15:49:13.208Z,8.97
2019-02-20T15:51:42.402Z,8.73
2019-02-20T15:54:11.500Z,9.50
2019-02-20T15:56:40.746Z,7.60
2019-02-20T15:59:09.960Z,8.07
2019-02-20T16:01:39.256Z,7.70
2019-02-20T16:04:08.614Z,8.80
2019-02-20T16:06:37.767Z,7.47
2019-02-20T16:09:07.620Z,8.30
2019-02-20T16:11:36.948Z,9.13
2019-02-20T16:14:06.197Z,8.23
2019-02-20T16:16:35.326Z,8.43
2019-02-20T16:19:05.027Z,7.40
2019-02-20T16:21:36.933Z,8.37
2019-02-20T16:24:06.156Z,10.30
2019-02-20T16:26:35.285Z,9.10
2019-02-20T16:29:04.534Z,8.47
2019-02-20T16:31:33.893Z,8.53
2019-02-20T16:34:04.127Z,9.40
2019-02-20T16:36:33.410Z,8.90
2019-02-20T16:39:02.732Z,8.80
2019-02-20T16:41:31.968Z,8.90
2019-02-20T16:44:01.295Z,9.40
2019-02-20T16:46:30.629Z,9.63
2019-02-20T16:49:00.190Z,9.17
2019-02-20T16:51:29.564Z,8.97
2019-02-20T16:53:58.907Z,9.40
2019-02-20T16:56:28.311Z,11.60
2019-02-20T16:58:57.581Z,17.70
2019-02-20T17:01:26.713Z,18.90
2019-02-20T17:03:55.846Z,19.80
2019-02-20T17:06:24.942Z,12.10
2019-02-20T17:08:54.302Z,10.30
2019-02-20T17:11:23.602Z,11.40
2019-02-20T17:13:52.875Z,13.30
2019-02-20T17:16:21.908Z,16.83
2019-02-20T17:18:51.071Z,22.50
2019-02-20T17:21:20.283Z,23.07
2019-02-20T17:23:49.654Z,17.50
2019-02-20T17:26:18.825Z,18.40
2019-02-20T17:28:47.944Z,20.27
2019-02-20T17:31:17.149Z,15.70
2019-02-20T17:33:46.391Z,17.57
2019-02-20T17:36:16.197Z,16.80
2019-02-20T17:38:45.421Z,16.30
2019-02-20T17:41:14.783Z,12.77
2019-02-20T17:43:44.037Z,14.47
2019-02-20T17:46:13.418Z,13.87
2019-02-20T17:48:42.608Z,16.10
2019-02-20T17:51:12.343Z,17.20
2019-02-20T17:53:41.446Z,15.60
2019-02-20T17:56:10.782Z,15.47
2019-02-20T17:58:40.225Z,16.20
2019-02-20T18:01:15.831Z,15.30
2019-02-20T18:03:45.030Z,17.20
2019-02-20T18:06:14.380Z,15.40
2019-02-20T18:08:43.663Z,16.17
2019-02-20T18:11:13.315Z,16.57
2019-02-20T18:13:42.757Z,15.63
2019-02-20T18:16:11.941Z,17.87
2019-02-20T18:18:41.213Z,19.00
2019-02-20T18:21:10.567Z,20.37
2019-02-20T18:23:39.633Z,21.90
2019-02-20T18:26:08.800Z,20.43
2019-02-20T18:28:37.907Z,21.40
2019-02-20T18:31:07.062Z,22.10
2019-02-20T18:33:36.474Z,18.70
2019-02-20T18:36:05.802Z,18.23
2019-02-20T18:38:34.915Z,19.27
2019-02-20T18:41:04.013Z,18.27
2019-02-20T18:43:33.275Z,20.60
2019-02-20T18:46:02.351Z,21.50
2019-02-20T18:48:31.605Z,22.70
2019-02-20T18:51:00.728Z,27.07
2019-02-20T18:53:31.001Z,26.57
2019-02-20T18:56:00.174Z,27.63
2019-02-20T18:58:33.970Z,27.30
2019-02-20T19:01:00.500Z,29.10
2019-02-20T19:03:30.648Z,28.63
2019-02-20T19:06:00.088Z,28.20
2019-02-20T19:08:47.268Z,77.30
2019-02-20T19:11:32.254Z,26.37
2019-02-20T19:14:31.174Z,29.10
2019-02-20T19:17:41.496Z,27.47
2019-02-20T19:20:32.012Z,25.83
2019-02-20T19:23:22.518Z,27.07
2019-02-20T19:26:31.089Z,26.03
2019-02-20T19:29:59.746Z,27.57
2019-02-20T19:33:25.103Z,24.57
2019-02-20T19:36:44.536Z,24.07
2019-02-20T19:39:59.366Z,23.60
2019-02-20T19:42:59.949Z,24.37
2019-02-20T19:46:00.255Z,26.00
2019-02-20T19:48:55.072Z,24.10
2019-02-20T19:52:23.519Z,24.00
2019-02-20T19:55:22.311Z,22.83
2019-02-20T19:58:09.629Z,24.67
2019-02-20T20:01:30.988Z,24.70
2019-02-20T20:04:33.623Z,21.97
2019-02-20T20:07:49.755Z,24.93
2019-02-20T20:10:51.631Z,23.53
2019-02-20T20:14:02.210Z,25.60
2019-02-20T20:17:30.469Z,22.90
2019-02-20T20:20:32.282Z,23.57
2019-02-20T20:23:36.688Z,22.73
2019-02-20T20:26:43.499Z,22.50
2019-02-20T20:29:57.512Z,24.00
2019-02-20T20:32:56.540Z,24.03
2019-02-20T20:36:28.170Z,24.70
2019-02-20T20:39:16.708Z,23.93
2019-02-20T20:42:26.433Z,23.13
2019-02-20T20:45:26.989Z,23.03
2019-02-20T20:48:18.777Z,24.33
2019-02-20T20:51:13.885Z,25.73
2019-02-20T20:54:26.473Z,25.80
2019-02-20T20:57:28.145Z,25.00
2019-02-20T21:00:10.732Z,25.33
2019-02-20T21:02:57.366Z,29.77
2019-02-20T21:06:11.859Z,28.30
2019-02-20T21:09:33.747Z,26.10
2019-02-20T21:12:38.622Z,26.33
2019-02-20T21:15:52.205Z,24.63
2019-02-20T21:19:02.850Z,24.97
2019-02-20T21:21:47.987Z,21.70
2019-02-20T21:24:45.259Z,24.73
2019-02-20T21:27:58.799Z,26.07
2019-02-20T21:31:03.884Z,24.40
2019-02-20T21:34:00.230Z,25.40
2019-02-20T21:36:57.700Z,24.20
2019-02-20T21:39:52.289Z,26.57
2019-02-20T21:42:34.540Z,24.43
2019-02-20T21:45:16.251Z,28.13
2019-02-20T21:48:28.559Z,26.20
2019-02-20T21:51:26.247Z,24.20
2019-02-20T21:54:40.158Z,25.97
2019-02-20T21:57:39.275Z,24.33
2019-02-20T22:00:42.722Z,25.90
2019-02-20T22:03:56.021Z,24.80
2019-02-20T22:06:59.527Z,25.77
2019-02-20T22:10:01.825Z,25.50
2019-02-20T22:13:06.843Z,25.70
2019-02-20T22:16:00.385Z,24.90
2019-02-20T22:18:40.344Z,27.73
2019-02-20T22:21:33.519Z,26.43
2019-02-20T22:24:59.011Z,25.77
2019-02-20T22:28:08.016Z,24.27
2019-02-20T22:31:00.833Z,24.77
2019-02-20T22:33:48.424Z,24.90
2019-02-20T22:36:52.269Z,26.40
2019-02-20T22:39:31.071Z,26.53
2019-02-20T22:42:31.168Z,27.53
2019-02-20T22:45:23.151Z,28.10
2019-02-20T22:48:28.303Z,28.37
2019-02-20T22:51:15.698Z,29.97
2019-02-20T22:54:16.233Z,28.37
2019-02-20T22:57:31.208Z,28.60
2019-02-20T23:00:40.877Z,28.73
2019-02-20T23:03:21.784Z,28.00
2019-02-20T23:06:33.825Z,28.00
2019-02-20T23:09:28.317Z,25.03
2019-02-20T23:12:12.972Z,27.20
2019-02-20T23:14:58.044Z,27.10
2019-02-20T23:17:27.822Z,25.43
2019-02-20T23:19:57.945Z,25.87
2019-02-20T23:22:27.438Z,26.63
2019-02-20T23:24:56.718Z,25.93
2019-02-20T23:27:26.049Z,25.20
2019-02-20T23:29:55.126Z,25.77
2019-02-20T23:32:24.362Z,25.93
2019-02-20T23:34:53.466Z,26.43
2019-02-20T23:37:22.882Z,25.93
2019-02-20T23:39:51.984Z,25.90
2019-02-20T23:42:21.347Z,25.47
2019-02-20T23:44:50.439Z,25.93
2019-02-20T23:47:19.707Z,26.00
2019-02-20T23:49:48.839Z,26.17
2019-02-20T23:52:17.955Z,25.07
2019-02-20T23:54:47.373Z,27.13
2019-02-20T23:57:16.496Z,27.40
2019-02-20T23:59:45.803Z,26.20
